Scout — WCZ2046 — position and weather

sailwx.info

Track history (hours):
 
Tides and Currents Weather Stations Pressure Air Temp Water Temp Dewpoint Dewpoint Depression Visibility Wind Speed Wind Dir Waves Ship Positions

Scout

Owner: Crowley Marine Services, SEATTLE, WA. More information available from US FCC via Universal Licensing System and Coast Guard Vessel Documentation Center.

Last reported at 2017-Feb-24 21:33 UTC. Time now 2017-Feb-24 21:52 UTC.
Position N 32°40' W 117°08'.

; draft 5.6 m.

Type: Tug. MMSI: 366764730.

Date/timePositionNaut miles runAvg speedWind from/ knotsBaromVisibWave heightAir tempDewpointWater temp
2017-Feb-24 21:33N 32°40' W 117°08'2 0.3
2017-Feb-24 15:32N 32°41' W 117°09'2 2.0
2017-Feb-24 14:27N 32°39' W 117°07'3 2.5
2017-Feb-24 13:18N 32°42' W 117°09'0 0.0
2017-Feb-24 12:32N 32°42' W 117°09'0 0.0
2017-Feb-24 11:30N 32°42' W 117°09'0 0.1
2017-Feb-24 10:33N 32°42' W 117°09'0 0.0
2017-Feb-24 09:33N 32°42' W 117°09'0 0.1
2017-Feb-24 08:33N 32°42' W 117°09'0 0.0
2017-Feb-24 07:32N 32°42' W 117°09'0 0.0
2017-Feb-24 06:25N 32°42' W 117°09'2 0.5
2017-Feb-24 01:32N 32°40' W 117°07'2 0.1
2017-Feb-23 00:12N 32°42' W 117°09'3 3.3
2017-Feb-22 23:19N 32°39' W 117°07'3 0.3
2017-Feb-22 14:13N 32°42' W 117°09'2 2.9
2017-Feb-22 13:25N 32°40' W 117°08'3 2.9
2017-Feb-22 12:33N 32°42' W 117°09'2 0.2
2017-Feb-22 00:28N 32°40' W 117°08'2 1.8
2017-Feb-21 23:14N 32°42' W 117°09'3 4.8
2017-Feb-21 22:33N 32°39' W 117°07'0 0.1
2017-Feb-21 21:31N 32°39' W 117°07'2 1.8
2017-Feb-21 20:11N 32°41' W 117°08'1 0.3
2017-Feb-21 18:20N 32°41' W 117°09'3 1.6
2017-Feb-21 16:31N 32°39' W 117°07'3 2.9
2017-Feb-21 15:33N 32°41' W 117°09'2 0.2
2017-Feb-21 05:11N 32°40' W 117°07'5 0.5
2017-Feb-20 18:33N 32°43' W 117°13'3 3.2
2017-Feb-20 17:32N 32°42' W 117°09'1 0.8
2017-Feb-20 16:21N 32°41' W 117°08'1 0.1
2017-Feb-20 06:30N 32°42' W 117°09'3 0.2
2017-Feb-19 13:18N 32°39' W 117°07'1 0.1
2017-Feb-18 22:30N 32°40' W 117°08'1 0.8
2017-Feb-18 21:33N 32°41' W 117°08'2 0.3
2017-Feb-18 16:19N 32°42' W 117°09'0 0.0
2017-Feb-18 15:33N 32°42' W 117°09'0 0.0
2017-Feb-18 14:21N 32°42' W 117°09'0 0.0
2017-Feb-17 18:33N 32°42' W 117°09'0 0.0
2017-Feb-17 17:33N 32°42' W 117°09'0 0.0
2017-Feb-17 16:32N 32°42' W 117°09'0 0.1
2017-Feb-17 15:33N 32°42' W 117°09'0 0.0
2017-Feb-17 14:33N 32°42' W 117°09'0 0.1
2017-Feb-17 13:33N 32°42' W 117°09'0 0.1
2017-Feb-17 12:33N 32°42' W 117°09'0 0.0
2017-Feb-17 11:33N 32°42' W 117°09'0 0.1
2017-Feb-17 10:33N 32°42' W 117°09'0 0.1
2017-Feb-17 09:33N 32°42' W 117°09'0 0.0
2017-Feb-17 08:33N 32°42' W 117°09'0 0.0
2017-Feb-17 07:33N 32°42' W 117°09'0 0.0
2017-Feb-17 06:33N 32°42' W 117°09'0 0.1
2017-Feb-17 05:33N 32°42' W 117°09'0 0.0
2017-Feb-17 04:27N 32°42' W 117°09'0 0.0
2017-Feb-17 03:30N 32°42' W 117°09'0 0.0
2017-Feb-17 02:32N 32°42' W 117°09'0 0.0
2017-Feb-17 01:31N 32°42' W 117°09'0 0.0
2017-Feb-17 00:32N 32°42' W 117°09'0 0.0
2017-Feb-16 23:33N 32°42' W 117°09'0 0.0
2017-Feb-16 22:33N 32°42' W 117°09'0 0.0
2017-Feb-16 21:33N 32°42' W 117°09'0 0.1
2017-Feb-16 20:33N 32°42' W 117°09'0 0.1
2017-Feb-16 19:33N 32°42' W 117°09'0 0.0
2017-Feb-16 18:33N 32°42' W 117°09'0 0.0
2017-Feb-16 17:33N 32°42' W 117°09'0 0.0
2017-Feb-16 16:30N 32°42' W 117°09'0 0.1
2017-Feb-16 15:33N 32°42' W 117°09'0 0.1
2017-Feb-16 14:33N 32°42' W 117°09'0 0.0
2017-Feb-16 13:33N 32°42' W 117°09'0 0.0
2017-Feb-16 12:33N 32°42' W 117°09'0 0.0
2017-Feb-16 11:33N 32°42' W 117°09'0 0.0
2017-Feb-16 10:33N 32°42' W 117°09'0 0.0
2017-Feb-16 09:33N 32°42' W 117°09'0 0.1
2017-Feb-16 08:33N 32°42' W 117°09'0 0.1
2017-Feb-16 07:33N 32°42' W 117°09'0 0.1
2017-Feb-16 06:33N 32°42' W 117°09'0 0.1
2017-Feb-16 05:33N 32°42' W 117°09'0 0.0
2017-Feb-16 04:33N 32°42' W 117°09'0 0.0
2017-Feb-16 03:33N 32°42' W 117°09'0 0.0
2017-Feb-16 02:26N 32°42' W 117°09'0 0.4
2017-Feb-16 01:33N 32°41' W 117°09'2 2.0
2017-Feb-16 00:33N 32°40' W 117°08'2 2.3
2017-Feb-15 23:32N 32°42' W 117°09'0 0.0
2017-Feb-15 22:30N 32°42' W 117°09'0 0.0
2017-Feb-15 21:32N 32°42' W 117°09'0 0.0
2017-Feb-15 20:33N 32°42' W 117°09'0 0.0
2017-Feb-15 19:33N 32°42' W 117°09'0 0.0
2017-Feb-15 18:32N 32°42' W 117°09'0 0.0
2017-Feb-15 17:33N 32°42' W 117°09'0 0.0
2017-Feb-15 16:33N 32°42' W 117°09'0 0.1
2017-Feb-15 15:33N 32°42' W 117°09'0 0.0
2017-Feb-15 13:33N 32°42' W 117°09'0 0.1
2017-Feb-15 12:33N 32°42' W 117°09'0 0.1
2017-Feb-15 11:33N 32°42' W 117°09'0 0.0
2017-Feb-15 10:33N 32°42' W 117°09'3 2.6
2017-Feb-15 09:33N 32°40' W 117°08'1 1.1
2017-Feb-15 08:33N 32°41' W 117°08'1 1.5
2017-Feb-15 07:33N 32°42' W 117°09'0 0.1
2017-Feb-15 06:33N 32°42' W 117°09'0 0.0
2017-Feb-15 05:33N 32°42' W 117°09'0 0.0
2017-Feb-15 04:30N 32°42' W 117°09'0 0.0
2017-Feb-15 01:32N 32°42' W 117°09'0 0.0
2017-Feb-15 00:30N 32°42' W 117°09'0 0.1
2017-Feb-14 23:33N 32°42' W 117°09'0 0.1
2017-Feb-14 22:33N 32°42' W 117°09'  
Track history (hours):
 
Tides and Currents Weather Stations Pressure Air Temp Water Temp Dewpoint Dewpoint Depression Visibility Wind Speed Wind Dir Waves Ship Positions

Scout

Owner: Crowley Marine Services, SEATTLE, WA. More information available from US FCC via Universal Licensing System and Coast Guard Vessel Documentation Center.

Last reported at 2017-Feb-24 21:33 UTC. Time now 2017-Feb-24 21:52 UTC.
Position N 32°40' W 117°08'.

; draft 5.6 m.

Type: Tug. MMSI: 366764730.

Date/timePositionNaut miles runAvg speedWind from/ knotsBaromVisibWave heightAir tempDewpointWater temp
2017-Feb-24 21:33N 32°40' W 117°08'2 0.3
2017-Feb-24 15:32N 32°41' W 117°09'2 2.0
2017-Feb-24 14:27N 32°39' W 117°07'3 2.5
2017-Feb-24 13:18N 32°42' W 117°09'0 0.0
2017-Feb-24 12:32N 32°42' W 117°09'0 0.0
2017-Feb-24 11:30N 32°42' W 117°09'0 0.1
2017-Feb-24 10:33N 32°42' W 117°09'0 0.0
2017-Feb-24 09:33N 32°42' W 117°09'0 0.1
2017-Feb-24 08:33N 32°42' W 117°09'0 0.0
2017-Feb-24 07:32N 32°42' W 117°09'0 0.0
2017-Feb-24 06:25N 32°42' W 117°09'2 0.5
2017-Feb-24 01:32N 32°40' W 117°07'2 0.1
2017-Feb-23 00:12N 32°42' W 117°09'3 3.3
2017-Feb-22 23:19N 32°39' W 117°07'3 0.3
2017-Feb-22 14:13N 32°42' W 117°09'2 2.9
2017-Feb-22 13:25N 32°40' W 117°08'3 2.9
2017-Feb-22 12:33N 32°42' W 117°09'2 0.2
2017-Feb-22 00:28N 32°40' W 117°08'2 1.8
2017-Feb-21 23:14N 32°42' W 117°09'3 4.8
2017-Feb-21 22:33N 32°39' W 117°07'0 0.1
2017-Feb-21 21:31N 32°39' W 117°07'2 1.8
2017-Feb-21 20:11N 32°41' W 117°08'1 0.3
2017-Feb-21 18:20N 32°41' W 117°09'3 1.6
2017-Feb-21 16:31N 32°39' W 117°07'3 2.9
2017-Feb-21 15:33N 32°41' W 117°09'2 0.2
2017-Feb-21 05:11N 32°40' W 117°07'5 0.5
2017-Feb-20 18:33N 32°43' W 117°13'3 3.2
2017-Feb-20 17:32N 32°42' W 117°09'1 0.8
2017-Feb-20 16:21N 32°41' W 117°08'1 0.1
2017-Feb-20 06:30N 32°42' W 117°09'3 0.2
2017-Feb-19 13:18N 32°39' W 117°07'1 0.1
2017-Feb-18 22:30N 32°40' W 117°08'1 0.8
2017-Feb-18 21:33N 32°41' W 117°08'2 0.3
2017-Feb-18 16:19N 32°42' W 117°09'0 0.0
2017-Feb-18 15:33N 32°42' W 117°09'0 0.0
2017-Feb-18 14:21N 32°42' W 117°09'0 0.0
2017-Feb-17 18:33N 32°42' W 117°09'0 0.0
2017-Feb-17 17:33N 32°42' W 117°09'0 0.0
2017-Feb-17 16:32N 32°42' W 117°09'0 0.1
2017-Feb-17 15:33N 32°42' W 117°09'0 0.0
2017-Feb-17 14:33N 32°42' W 117°09'0 0.1
2017-Feb-17 13:33N 32°42' W 117°09'0 0.1
2017-Feb-17 12:33N 32°42' W 117°09'0 0.0
2017-Feb-17 11:33N 32°42' W 117°09'0 0.1
2017-Feb-17 10:33N 32°42' W 117°09'0 0.1
2017-Feb-17 09:33N 32°42' W 117°09'0 0.0
2017-Feb-17 08:33N 32°42' W 117°09'0 0.0
2017-Feb-17 07:33N 32°42' W 117°09'0 0.0
2017-Feb-17 06:33N 32°42' W 117°09'0 0.1
2017-Feb-17 05:33N 32°42' W 117°09'0 0.0
2017-Feb-17 04:27N 32°42' W 117°09'0 0.0
2017-Feb-17 03:30N 32°42' W 117°09'0 0.0
2017-Feb-17 02:32N 32°42' W 117°09'0 0.0
2017-Feb-17 01:31N 32°42' W 117°09'0 0.0
2017-Feb-17 00:32N 32°42' W 117°09'0 0.0
2017-Feb-16 23:33N 32°42' W 117°09'0 0.0
2017-Feb-16 22:33N 32°42' W 117°09'0 0.0
2017-Feb-16 21:33N 32°42' W 117°09'0 0.1
2017-Feb-16 20:33N 32°42' W 117°09'0 0.1
2017-Feb-16 19:33N 32°42' W 117°09'0 0.0
2017-Feb-16 18:33N 32°42' W 117°09'0 0.0
2017-Feb-16 17:33N 32°42' W 117°09'0 0.0
2017-Feb-16 16:30N 32°42' W 117°09'0 0.1
2017-Feb-16 15:33N 32°42' W 117°09'0 0.1
2017-Feb-16 14:33N 32°42' W 117°09'0 0.0
2017-Feb-16 13:33N 32°42' W 117°09'0 0.0
2017-Feb-16 12:33N 32°42' W 117°09'0 0.0
2017-Feb-16 11:33N 32°42' W 117°09'0 0.0
2017-Feb-16 10:33N 32°42' W 117°09'0 0.0
2017-Feb-16 09:33N 32°42' W 117°09'0 0.1
2017-Feb-16 08:33N 32°42' W 117°09'0 0.1
2017-Feb-16 07:33N 32°42' W 117°09'0 0.1
2017-Feb-16 06:33N 32°42' W 117°09'0 0.1
2017-Feb-16 05:33N 32°42' W 117°09'0 0.0
2017-Feb-16 04:33N 32°42' W 117°09'0 0.0
2017-Feb-16 03:33N 32°42' W 117°09'0 0.0
2017-Feb-16 02:26N 32°42' W 117°09'0 0.4
2017-Feb-16 01:33N 32°41' W 117°09'2 2.0
2017-Feb-16 00:33N 32°40' W 117°08'2 2.3
2017-Feb-15 23:32N 32°42' W 117°09'0 0.0
2017-Feb-15 22:30N 32°42' W 117°09'0 0.0
2017-Feb-15 21:32N 32°42' W 117°09'0 0.0
2017-Feb-15 20:33N 32°42' W 117°09'0 0.0
2017-Feb-15 19:33N 32°42' W 117°09'0 0.0
2017-Feb-15 18:32N 32°42' W 117°09'0 0.0
2017-Feb-15 17:33N 32°42' W 117°09'0 0.0
2017-Feb-15 16:33N 32°42' W 117°09'0 0.1
2017-Feb-15 15:33N 32°42' W 117°09'0 0.0
2017-Feb-15 13:33N 32°42' W 117°09'0 0.1
2017-Feb-15 12:33N 32°42' W 117°09'0 0.1
2017-Feb-15 11:33N 32°42' W 117°09'0 0.0
2017-Feb-15 10:33N 32°42' W 117°09'3 2.6
2017-Feb-15 09:33N 32°40' W 117°08'1 1.1
2017-Feb-15 08:33N 32°41' W 117°08'1 1.5
2017-Feb-15 07:33N 32°42' W 117°09'0 0.1
2017-Feb-15 06:33N 32°42' W 117°09'0 0.0
2017-Feb-15 05:33N 32°42' W 117°09'0 0.0
2017-Feb-15 04:30N 32°42' W 117°09'0 0.0
2017-Feb-15 01:32N 32°42' W 117°09'0 0.0
2017-Feb-15 00:30N 32°42' W 117°09'0 0.1
2017-Feb-14 23:33N 32°42' W 117°09'0 0.1
2017-Feb-14 22:33N 32°42' W 117°09'  

Dump ship's entire track history